sensor_id;sensor_type;location;lat;lon;timestamp;P1;durP1;ratioP1;P2;durP2;ratioP2
49858;SDS011;35756;52.346;13.622;2022-10-14T00:00:59;27.60;;;15.45;;
49858;SDS011;35756;52.346;13.622;2022-10-14T00:03:25;25.33;;;15.00;;
49858;SDS011;35756;52.346;13.622;2022-10-14T00:05:51;23.67;;;14.75;;
49858;SDS011;35756;52.346;13.622;2022-10-14T00:08:16;26.02;;;15.43;;
49858;SDS011;35756;52.346;13.622;2022-10-14T00:10:41;26.35;;;14.93;;
49858;SDS011;35756;52.346;13.622;2022-10-14T00:13:06;24.27;;;14.50;;
49858;SDS011;35756;52.346;13.622;2022-10-14T00:15:36;23.90;;;14.23;;
49858;SDS011;35756;52.346;13.622;2022-10-14T00:18:02;24.70;;;15.18;;
49858;SDS011;35756;52.346;13.622;2022-10-14T00:20:27;22.13;;;13.70;;
49858;SDS011;35756;52.346;13.622;2022-10-14T00:22:53;27.45;;;14.55;;
49858;SDS011;35756;52.346;13.622;2022-10-14T00:25:18;25.25;;;14.52;;
49858;SDS011;35756;52.346;13.622;2022-10-14T00:27:44;23.92;;;14.02;;
49858;SDS011;35756;52.346;13.622;2022-10-14T00:30:09;25.27;;;14.07;;
49858;SDS011;35756;52.346;13.622;2022-10-14T00:32:35;22.63;;;14.75;;
49858;SDS011;35756;52.346;13.622;2022-10-14T00:35:00;26.38;;;14.57;;
49858;SDS011;35756;52.346;13.622;2022-10-14T00:37:25;22.27;;;13.02;;
49858;SDS011;35756;52.346;13.622;2022-10-14T00:39:50;27.13;;;13.77;;
49858;SDS011;35756;52.346;13.622;2022-10-14T00:42:16;25.15;;;13.93;;
49858;SDS011;35756;52.346;13.622;2022-10-14T00:47:06;22.17;;;13.50;;
49858;SDS011;35756;52.346;13.622;2022-10-14T00:49:33;24.95;;;14.05;;
49858;SDS011;35756;52.346;13.622;2022-10-14T00:52:10;22.45;;;13.55;;
49858;SDS011;35756;52.346;13.622;2022-10-14T00:54:40;23.55;;;13.10;;
49858;SDS011;35756;52.346;13.622;2022-10-14T00:57:08;22.80;;;13.70;;
49858;SDS011;35756;52.346;13.622;2022-10-14T00:59:33;23.02;;;13.77;;
49858;SDS011;35756;52.346;13.622;2022-10-14T01:01:58;19.80;;;12.93;;
49858;SDS011;35756;52.346;13.622;2022-10-14T01:04:24;23.27;;;13.55;;
49858;SDS011;35756;52.346;13.622;2022-10-14T01:10:15;21.65;;;12.52;;
49858;SDS011;35756;52.346;13.622;2022-10-14T01:12:56;21.63;;;12.70;;
49858;SDS011;35756;52.346;13.622;2022-10-14T01:18:29;19.38;;;12.57;;
49858;SDS011;35756;52.346;13.622;2022-10-14T01:21:15;20.60;;;12.90;;
49858;SDS011;35756;52.346;13.622;2022-10-14T01:29:42;22.45;;;12.75;;
49858;SDS011;35756;52.346;13.622;2022-10-14T01:32:09;21.90;;;13.25;;
49858;SDS011;35756;52.346;13.622;2022-10-14T01:35:10;22.25;;;12.63;;
49858;SDS011;35756;52.346;13.622;2022-10-14T01:37:57;22.63;;;13.43;;
49858;SDS011;35756;52.346;13.622;2022-10-14T01:40:26;20.05;;;12.52;;
49858;SDS011;35756;52.346;13.622;2022-10-14T01:42:56;22.23;;;13.73;;
49858;SDS011;35756;52.346;13.622;2022-10-14T01:45:23;26.63;;;14.48;;
49858;SDS011;35756;52.346;13.622;2022-10-14T01:47:50;22.90;;;12.98;;
49858;SDS011;35756;52.346;13.622;2022-10-14T01:50:16;26.67;;;13.63;;
49858;SDS011;35756;52.346;13.622;2022-10-14T01:52:46;21.90;;;13.60;;
49858;SDS011;35756;52.346;13.622;2022-10-14T01:55:15;24.75;;;13.25;;
49858;SDS011;35756;52.346;13.622;2022-10-14T01:57:43;21.42;;;13.00;;
49858;SDS011;35756;52.346;13.622;2022-10-14T02:00:09;27.02;;;14.07;;
49858;SDS011;35756;52.346;13.622;2022-10-14T02:02:35;21.65;;;13.07;;
49858;SDS011;35756;52.346;13.622;2022-10-14T02:05:02;22.10;;;13.20;;
49858;SDS011;35756;52.346;13.622;2022-10-14T02:07:32;24.23;;;13.98;;
49858;SDS011;35756;52.346;13.622;2022-10-14T02:13:01;23.05;;;13.00;;
49858;SDS011;35756;52.346;13.622;2022-10-14T02:15:41;23.27;;;13.77;;
49858;SDS011;35756;52.346;13.622;2022-10-14T02:18:18;23.42;;;13.88;;
49858;SDS011;35756;52.346;13.622;2022-10-14T02:20:52;22.60;;;13.80;;
49858;SDS011;35756;52.346;13.622;2022-10-14T02:23:22;23.73;;;14.30;;
49858;SDS011;35756;52.346;13.622;2022-10-14T02:25:51;22.33;;;13.18;;
49858;SDS011;35756;52.346;13.622;2022-10-14T02:28:18;27.00;;;13.82;;
49858;SDS011;35756;52.346;13.622;2022-10-14T02:30:45;21.77;;;13.30;;
49858;SDS011;35756;52.346;13.622;2022-10-14T02:33:14;25.35;;;14.00;;
49858;SDS011;35756;52.346;13.622;2022-10-14T02:35:42;21.90;;;13.43;;
49858;SDS011;35756;52.346;13.622;2022-10-14T02:38:08;23.25;;;12.93;;
49858;SDS011;35756;52.346;13.622;2022-10-14T02:40:38;27.20;;;14.52;;
49858;SDS011;35756;52.346;13.622;2022-10-14T02:43:04;22.08;;;13.75;;
49858;SDS011;35756;52.346;13.622;2022-10-14T02:45:32;23.75;;;14.13;;
49858;SDS011;35756;52.346;13.622;2022-10-14T02:47:57;20.55;;;13.15;;
49858;SDS011;35756;52.346;13.622;2022-10-14T02:50:23;23.48;;;13.65;;
49858;SDS011;35756;52.346;13.622;2022-10-14T02:52:48;22.80;;;12.98;;
49858;SDS011;35756;52.346;13.622;2022-10-14T02:55:13;23.23;;;13.50;;
49858;SDS011;35756;52.346;13.622;2022-10-14T02:57:39;26.77;;;13.63;;
49858;SDS011;35756;52.346;13.622;2022-10-14T03:00:04;26.45;;;13.68;;
49858;SDS011;35756;52.346;13.622;2022-10-14T03:02:30;28.67;;;14.73;;
49858;SDS011;35756;52.346;13.622;2022-10-14T03:04:55;23.33;;;14.00;;
49858;SDS011;35756;52.346;13.622;2022-10-14T03:07:22;23.83;;;14.35;;
49858;SDS011;35756;52.346;13.622;2022-10-14T03:09:47;25.83;;;14.35;;
49858;SDS011;35756;52.346;13.622;2022-10-14T03:12:12;26.38;;;14.13;;
49858;SDS011;35756;52.346;13.622;2022-10-14T03:14:38;23.40;;;13.95;;
49858;SDS011;35756;52.346;13.622;2022-10-14T03:17:03;23.95;;;13.93;;
49858;SDS011;35756;52.346;13.622;2022-10-14T03:19:28;24.55;;;13.93;;
49858;SDS011;35756;52.346;13.622;2022-10-14T03:21:53;34.17;;;15.35;;
49858;SDS011;35756;52.346;13.622;2022-10-14T03:24:19;28.25;;;14.50;;
49858;SDS011;35756;52.346;13.622;2022-10-14T03:26:44;25.35;;;13.23;;
49858;SDS011;35756;52.346;13.622;2022-10-14T03:29:09;25.45;;;14.50;;
49858;SDS011;35756;52.346;13.622;2022-10-14T03:31:35;23.85;;;13.68;;
49858;SDS011;35756;52.346;13.622;2022-10-14T03:34:00;26.77;;;14.38;;
49858;SDS011;35756;52.346;13.622;2022-10-14T03:36:26;24.88;;;15.00;;
49858;SDS011;35756;52.346;13.622;2022-10-14T03:38:51;23.77;;;13.80;;
49858;SDS011;35756;52.346;13.622;2022-10-14T03:41:16;23.27;;;13.20;;
49858;SDS011;35756;52.346;13.622;2022-10-14T03:43:42;27.13;;;13.82;;
49858;SDS011;35756;52.346;13.622;2022-10-14T03:46:07;30.40;;;15.75;;
49858;SDS011;35756;52.346;13.622;2022-10-14T03:48:32;25.73;;;13.85;;
49858;SDS011;35756;52.346;13.622;2022-10-14T03:50:58;24.73;;;14.98;;
49858;SDS011;35756;52.346;13.622;2022-10-14T03:53:23;23.35;;;13.63;;
49858;SDS011;35756;52.346;13.622;2022-10-14T03:55:48;22.65;;;13.57;;
49858;SDS011;35756;52.346;13.622;2022-10-14T03:58:13;23.08;;;14.20;;
49858;SDS011;35756;52.346;13.622;2022-10-14T04:00:39;22.75;;;14.27;;
49858;SDS011;35756;52.346;13.622;2022-10-14T04:03:04;20.48;;;12.45;;
49858;SDS011;35756;52.346;13.622;2022-10-14T04:05:29;24.75;;;13.15;;
49858;SDS011;35756;52.346;13.622;2022-10-14T04:07:58;20.70;;;12.48;;
49858;SDS011;35756;52.346;13.622;2022-10-14T04:10:23;22.05;;;13.18;;
49858;SDS011;35756;52.346;13.622;2022-10-14T04:12:48;23.92;;;13.75;;
49858;SDS011;35756;52.346;13.622;2022-10-14T04:15:14;23.30;;;13.40;;
49858;SDS011;35756;52.346;13.622;2022-10-14T04:17:40;22.48;;;13.25;;
49858;SDS011;35756;52.346;13.622;2022-10-14T04:20:05;22.25;;;13.02;;
49858;SDS011;35756;52.346;13.622;2022-10-14T04:22:30;22.45;;;13.40;;
49858;SDS011;35756;52.346;13.622;2022-10-14T04:24:57;23.73;;;13.63;;
49858;SDS011;35756;52.346;13.622;2022-10-14T04:27:22;24.83;;;14.68;;
49858;SDS011;35756;52.346;13.622;2022-10-14T04:29:47;21.27;;;13.35;;
49858;SDS011;35756;52.346;13.622;2022-10-14T04:32:13;23.88;;;13.38;;
49858;SDS011;35756;52.346;13.622;2022-10-14T04:34:39;24.17;;;12.82;;
49858;SDS011;35756;52.346;13.622;2022-10-14T04:37:04;24.42;;;12.98;;
49858;SDS011;35756;52.346;13.622;2022-10-14T04:39:29;21.52;;;13.25;;
49858;SDS011;35756;52.346;13.622;2022-10-14T04:41:55;23.77;;;13.27;;
49858;SDS011;35756;52.346;13.622;2022-10-14T04:44:20;22.20;;;13.05;;
49858;SDS011;35756;52.346;13.622;2022-10-14T04:46:45;24.40;;;13.80;;
49858;SDS011;35756;52.346;13.622;2022-10-14T04:49:11;23.13;;;12.85;;
49858;SDS011;35756;52.346;13.622;2022-10-14T04:51:36;27.27;;;13.55;;
49858;SDS011;35756;52.346;13.622;2022-10-14T04:54:02;22.65;;;12.88;;
49858;SDS011;35756;52.346;13.622;2022-10-14T04:56:27;24.27;;;13.65;;
49858;SDS011;35756;52.346;13.622;2022-10-14T04:58:52;23.60;;;13.40;;
49858;SDS011;35756;52.346;13.622;2022-10-14T05:01:18;24.42;;;14.10;;
49858;SDS011;35756;52.346;13.622;2022-10-14T05:03:43;19.60;;;12.43;;
49858;SDS011;35756;52.346;13.622;2022-10-14T05:06:09;23.73;;;14.75;;
49858;SDS011;35756;52.346;13.622;2022-10-14T05:08:34;20.67;;;13.15;;
49858;SDS011;35756;52.346;13.622;2022-10-14T05:11:00;27.23;;;13.93;;
49858;SDS011;35756;52.346;13.622;2022-10-14T05:13:26;22.90;;;13.73;;
49858;SDS011;35756;52.346;13.622;2022-10-14T05:15:51;19.80;;;12.80;;
49858;SDS011;35756;52.346;13.622;2022-10-14T05:18:16;22.15;;;13.30;;
49858;SDS011;35756;52.346;13.622;2022-10-14T05:20:42;22.27;;;13.57;;
49858;SDS011;35756;52.346;13.622;2022-10-14T05:23:07;21.67;;;13.70;;
49858;SDS011;35756;52.346;13.622;2022-10-14T05:25:32;26.55;;;13.55;;
49858;SDS011;35756;52.346;13.622;2022-10-14T05:27:58;22.73;;;13.73;;
49858;SDS011;35756;52.346;13.622;2022-10-14T05:30:23;23.92;;;13.57;;
49858;SDS011;35756;52.346;13.622;2022-10-14T05:32:48;17.83;;;11.88;;
49858;SDS011;35756;52.346;13.622;2022-10-14T05:35:14;27.08;;;13.55;;
49858;SDS011;35756;52.346;13.622;2022-10-14T05:37:39;23.25;;;13.45;;
49858;SDS011;35756;52.346;13.622;2022-10-14T05:40:05;25.85;;;13.93;;
49858;SDS011;35756;52.346;13.622;2022-10-14T05:42:31;26.52;;;13.95;;
49858;SDS011;35756;52.346;13.622;2022-10-14T05:44:56;27.75;;;14.30;;
49858;SDS011;35756;52.346;13.622;2022-10-14T05:47:22;20.05;;;13.15;;
49858;SDS011;35756;52.346;13.622;2022-10-14T05:49:47;24.58;;;13.90;;
49858;SDS011;35756;52.346;13.622;2022-10-14T05:52:12;24.17;;;13.45;;
49858;SDS011;35756;52.346;13.622;2022-10-14T05:54:38;23.63;;;13.48;;
49858;SDS011;35756;52.346;13.622;2022-10-14T05:57:03;25.13;;;14.10;;
49858;SDS011;35756;52.346;13.622;2022-10-14T05:59:28;24.95;;;13.90;;
49858;SDS011;35756;52.346;13.622;2022-10-14T06:01:54;24.65;;;14.18;;
49858;SDS011;35756;52.346;13.622;2022-10-14T06:04:20;32.95;;;14.57;;
49858;SDS011;35756;52.346;13.622;2022-10-14T06:06:46;27.00;;;15.18;;
49858;SDS011;35756;52.346;13.622;2022-10-14T06:09:11;30.92;;;14.80;;
49858;SDS011;35756;52.346;13.622;2022-10-14T06:11:37;24.95;;;13.88;;
49858;SDS011;35756;52.346;13.622;2022-10-14T06:14:02;27.85;;;16.02;;
49858;SDS011;35756;52.346;13.622;2022-10-14T06:16:28;23.67;;;13.52;;
49858;SDS011;35756;52.346;13.622;2022-10-14T06:18:53;26.17;;;15.25;;
49858;SDS011;35756;52.346;13.622;2022-10-14T06:21:18;23.98;;;14.25;;
49858;SDS011;35756;52.346;13.622;2022-10-14T06:23:43;23.73;;;15.00;;
49858;SDS011;35756;52.346;13.622;2022-10-14T06:26:09;28.30;;;15.55;;
49858;SDS011;35756;52.346;13.622;2022-10-14T06:28:34;23.42;;;14.40;;
49858;SDS011;35756;52.346;13.622;2022-10-14T06:31:00;28.60;;;15.43;;
49858;SDS011;35756;52.346;13.622;2022-10-14T06:33:26;30.60;;;15.32;;
49858;SDS011;35756;52.346;13.622;2022-10-14T06:35:52;24.83;;;14.23;;
49858;SDS011;35756;52.346;13.622;2022-10-14T06:38:17;23.92;;;15.23;;
49858;SDS011;35756;52.346;13.622;2022-10-14T06:40:43;18.95;;;12.93;;
49858;SDS011;35756;52.346;13.622;2022-10-14T06:43:08;28.13;;;15.02;;
49858;SDS011;35756;52.346;13.622;2022-10-14T06:45:33;26.42;;;15.32;;
49858;SDS011;35756;52.346;13.622;2022-10-14T06:47:59;31.92;;;15.68;;
49858;SDS011;35756;52.346;13.622;2022-10-14T06:50:24;33.25;;;16.98;;
49858;SDS011;35756;52.346;13.622;2022-10-14T06:52:49;25.90;;;15.88;;
49858;SDS011;35756;52.346;13.622;2022-10-14T06:55:15;28.77;;;15.88;;
49858;SDS011;35756;52.346;13.622;2022-10-14T06:57:40;30.15;;;16.55;;
49858;SDS011;35756;52.346;13.622;2022-10-14T07:00:06;33.80;;;17.20;;
49858;SDS011;35756;52.346;13.622;2022-10-14T07:02:32;29.60;;;15.90;;
49858;SDS011;35756;52.346;13.622;2022-10-14T07:04:57;29.33;;;15.38;;
49858;SDS011;35756;52.346;13.622;2022-10-14T07:07:22;22.48;;;13.70;;
49858;SDS011;35756;52.346;13.622;2022-10-14T07:09:47;26.25;;;14.57;;
49858;SDS011;35756;52.346;13.622;2022-10-14T07:12:13;26.17;;;16.67;;
49858;SDS011;35756;52.346;13.622;2022-10-14T07:14:38;32.00;;;17.20;;
49858;SDS011;35756;52.346;13.622;2022-10-14T07:17:03;33.85;;;19.00;;
49858;SDS011;35756;52.346;13.622;2022-10-14T07:19:31;34.38;;;18.48;;
49858;SDS011;35756;52.346;13.622;2022-10-14T07:21:56;37.35;;;20.30;;
49858;SDS011;35756;52.346;13.622;2022-10-14T07:24:22;32.45;;;19.00;;
49858;SDS011;35756;52.346;13.622;2022-10-14T07:26:47;31.17;;;18.08;;
49858;SDS011;35756;52.346;13.622;2022-10-14T07:29:12;30.17;;;18.45;;
49858;SDS011;35756;52.346;13.622;2022-10-14T07:31:38;29.75;;;18.33;;
49858;SDS011;35756;52.346;13.622;2022-10-14T07:34:03;31.65;;;17.00;;
49858;SDS011;35756;52.346;13.622;2022-10-14T07:36:28;29.77;;;17.30;;
49858;SDS011;35756;52.346;13.622;2022-10-14T07:38:53;30.23;;;17.05;;
49858;SDS011;35756;52.346;13.622;2022-10-14T07:41:20;25.95;;;16.77;;
49858;SDS011;35756;52.346;13.622;2022-10-14T07:43:51;29.95;;;16.40;;
49858;SDS011;35756;52.346;13.622;2022-10-14T07:46:19;35.10;;;17.95;;
49858;SDS011;35756;52.346;13.622;2022-10-14T07:48:53;29.92;;;16.88;;
49858;SDS011;35756;52.346;13.622;2022-10-14T07:51:19;31.00;;;16.65;;
49858;SDS011;35756;52.346;13.622;2022-10-14T07:53:44;26.60;;;15.70;;
49858;SDS011;35756;52.346;13.622;2022-10-14T07:56:10;32.67;;;18.23;;
49858;SDS011;35756;52.346;13.622;2022-10-14T07:58:35;30.90;;;15.52;;
49858;SDS011;35756;52.346;13.622;2022-10-14T08:01:00;32.20;;;17.52;;
49858;SDS011;35756;52.346;13.622;2022-10-14T08:03:26;30.05;;;16.63;;
49858;SDS011;35756;52.346;13.622;2022-10-14T08:05:56;30.27;;;16.23;;
49858;SDS011;35756;52.346;13.622;2022-10-14T08:08:23;29.20;;;17.63;;
49858;SDS011;35756;52.346;13.622;2022-10-14T08:10:48;29.70;;;16.80;;
49858;SDS011;35756;52.346;13.622;2022-10-14T08:13:13;29.92;;;16.40;;
49858;SDS011;35756;52.346;13.622;2022-10-14T08:15:39;31.35;;;16.05;;
49858;SDS011;35756;52.346;13.622;2022-10-14T08:18:05;31.27;;;14.95;;
49858;SDS011;35756;52.346;13.622;2022-10-14T08:20:31;27.02;;;16.10;;
49858;SDS011;35756;52.346;13.622;2022-10-14T08:22:57;30.70;;;14.85;;
49858;SDS011;35756;52.346;13.622;2022-10-14T08:25:22;29.67;;;16.50;;
49858;SDS011;35756;52.346;13.622;2022-10-14T08:27:48;24.52;;;14.18;;
49858;SDS011;35756;52.346;13.622;2022-10-14T08:30:15;25.30;;;14.82;;
49858;SDS011;35756;52.346;13.622;2022-10-14T08:32:40;26.10;;;14.73;;
49858;SDS011;35756;52.346;13.622;2022-10-14T08:35:05;26.42;;;15.38;;
49858;SDS011;35756;52.346;13.622;2022-10-14T08:37:31;24.67;;;14.90;;
49858;SDS011;35756;52.346;13.622;2022-10-14T08:39:56;27.85;;;15.93;;
49858;SDS011;35756;52.346;13.622;2022-10-14T08:42:33;31.50;;;20.50;;
49858;SDS011;35756;52.346;13.622;2022-10-14T08:45:10;28.30;;;16.40;;
49858;SDS011;35756;52.346;13.622;2022-10-14T08:47:41;28.02;;;14.80;;
49858;SDS011;35756;52.346;13.622;2022-10-14T08:50:21;43.33;;;25.92;;
49858;SDS011;35756;52.346;13.622;2022-10-14T08:53:06;38.90;;;25.08;;
49858;SDS011;35756;52.346;13.622;2022-10-14T08:55:43;40.13;;;22.50;;
49858;SDS011;35756;52.346;13.622;2022-10-14T08:58:12;40.83;;;21.25;;
49858;SDS011;35756;52.346;13.622;2022-10-14T09:00:42;32.78;;;19.27;;
49858;SDS011;35756;52.346;13.622;2022-10-14T09:03:15;26.65;;;16.65;;
49858;SDS011;35756;52.346;13.622;2022-10-14T09:05:44;27.90;;;16.40;;
49858;SDS011;35756;52.346;13.622;2022-10-14T09:08:13;28.05;;;15.98;;
49858;SDS011;35756;52.346;13.622;2022-10-14T09:10:40;32.45;;;19.00;;
49858;SDS011;35756;52.346;13.622;2022-10-14T09:13:09;28.23;;;16.20;;
49858;SDS011;35756;52.346;13.622;2022-10-14T09:15:38;27.63;;;15.93;;
49858;SDS011;35756;52.346;13.622;2022-10-14T09:18:16;27.77;;;15.25;;
49858;SDS011;35756;52.346;13.622;2022-10-14T09:20:45;26.48;;;15.18;;
49858;SDS011;35756;52.346;13.622;2022-10-14T09:23:13;27.55;;;15.35;;
49858;SDS011;35756;52.346;13.622;2022-10-14T09:25:53;26.65;;;14.68;;
49858;SDS011;35756;52.346;13.622;2022-10-14T09:28:23;23.55;;;13.27;;
49858;SDS011;35756;52.346;13.622;2022-10-14T09:31:00;23.85;;;13.77;;
49858;SDS011;35756;52.346;13.622;2022-10-14T09:33:26;27.33;;;15.35;;
49858;SDS011;35756;52.346;13.622;2022-10-14T09:35:52;23.02;;;14.30;;
49858;SDS011;35756;52.346;13.622;2022-10-14T09:38:17;23.98;;;14.55;;
49858;SDS011;35756;52.346;13.622;2022-10-14T09:40:44;25.38;;;13.77;;
49858;SDS011;35756;52.346;13.622;2022-10-14T09:43:14;21.40;;;13.15;;
49858;SDS011;35756;52.346;13.622;2022-10-14T09:45:45;21.63;;;13.13;;
49858;SDS011;35756;52.346;13.622;2022-10-14T09:48:12;25.92;;;14.40;;
49858;SDS011;35756;52.346;13.622;2022-10-14T09:50:40;23.95;;;14.18;;
49858;SDS011;35756;52.346;13.622;2022-10-14T09:53:14;23.00;;;13.07;;
49858;SDS011;35756;52.346;13.622;2022-10-14T09:55:45;23.55;;;14.40;;
49858;SDS011;35756;52.346;13.622;2022-10-14T09:58:15;23.05;;;12.68;;
49858;SDS011;35756;52.346;13.622;2022-10-14T10:00:41;22.80;;;12.45;;
49858;SDS011;35756;52.346;13.622;2022-10-14T10:03:07;22.00;;;12.35;;
49858;SDS011;35756;52.346;13.622;2022-10-14T10:05:48;25.75;;;13.77;;
49858;SDS011;35756;52.346;13.622;2022-10-14T10:08:24;23.27;;;13.27;;
49858;SDS011;35756;52.346;13.622;2022-10-14T10:10:57;20.80;;;12.45;;
49858;SDS011;35756;52.346;13.622;2022-10-14T10:13:32;21.95;;;11.75;;
49858;SDS011;35756;52.346;13.622;2022-10-14T10:16:00;19.48;;;12.55;;
49858;SDS011;35756;52.346;13.622;2022-10-14T10:18:27;20.52;;;12.57;;
49858;SDS011;35756;52.346;13.622;2022-10-14T10:21:38;19.90;;;11.63;;
49858;SDS011;35756;52.346;13.622;2022-10-14T10:23:55;19.17;;;11.63;;
49858;SDS011;35756;52.346;13.622;2022-10-14T10:26:27;20.88;;;11.48;;
49858;SDS011;35756;52.346;13.622;2022-10-14T10:28:56;19.13;;;10.50;;
49858;SDS011;35756;52.346;13.622;2022-10-14T10:34:38;14.20;;;9.45;;
49858;SDS011;35756;52.346;13.622;2022-10-14T10:37:26;17.55;;;9.82;;
49858;SDS011;35756;52.346;13.622;2022-10-14T10:42:43;18.75;;;9.75;;
49858;SDS011;35756;52.346;13.622;2022-10-14T10:45:22;18.10;;;9.85;;
49858;SDS011;35756;52.346;13.622;2022-10-14T10:48:10;13.27;;;8.77;;
49858;SDS011;35756;52.346;13.622;2022-10-14T10:50:50;13.40;;;8.95;;
49858;SDS011;35756;52.346;13.622;2022-10-14T10:53:31;16.05;;;9.73;;
49858;SDS011;35756;52.346;13.622;2022-10-14T10:56:38;15.32;;;8.93;;
49858;SDS011;35756;52.346;13.622;2022-10-14T11:02:15;14.68;;;8.82;;
49858;SDS011;35756;52.346;13.622;2022-10-14T11:05:07;14.65;;;9.48;;
49858;SDS011;35756;52.346;13.622;2022-10-14T11:07:53;15.35;;;7.63;;
49858;SDS011;35756;52.346;13.622;2022-10-14T11:16:16;13.98;;;7.68;;
49858;SDS011;35756;52.346;13.622;2022-10-14T11:18:48;11.68;;;7.38;;
49858;SDS011;35756;52.346;13.622;2022-10-14T11:21:28;14.70;;;7.80;;
49858;SDS011;35756;52.346;13.622;2022-10-14T11:24:04;13.75;;;7.88;;
49858;SDS011;35756;52.346;13.622;2022-10-14T11:32:00;13.13;;;7.53;;
49858;SDS011;35756;52.346;13.622;2022-10-14T11:39:47;10.18;;;6.38;;
49858;SDS011;35756;52.346;13.622;2022-10-14T11:42:20;12.55;;;6.90;;
49858;SDS011;35756;52.346;13.622;2022-10-14T11:44:56;12.38;;;7.22;;
49858;SDS011;35756;52.346;13.622;2022-10-14T11:47:33;9.48;;;6.10;;
49858;SDS011;35756;52.346;13.622;2022-10-14T11:50:15;8.77;;;5.38;;
49858;SDS011;35756;52.346;13.622;2022-10-14T11:52:57;9.82;;;5.95;;
49858;SDS011;35756;52.346;13.622;2022-10-14T11:55:26;11.23;;;6.18;;
49858;SDS011;35756;52.346;13.622;2022-10-14T11:57:56;9.65;;;5.40;;
49858;SDS011;35756;52.346;13.622;2022-10-14T12:08:47;7.93;;;5.05;;
49858;SDS011;35756;52.346;13.622;2022-10-14T12:14:01;8.07;;;5.28;;
49858;SDS011;35756;52.346;13.622;2022-10-14T12:19:04;10.32;;;5.70;;
49858;SDS011;35756;52.346;13.622;2022-10-14T12:21:45;8.75;;;5.00;;
49858;SDS011;35756;52.346;13.622;2022-10-14T12:24:16;9.13;;;5.68;;
49858;SDS011;35756;52.346;13.622;2022-10-14T12:26:53;9.82;;;5.25;;
49858;SDS011;35756;52.346;13.622;2022-10-14T12:29:21;7.72;;;5.28;;
49858;SDS011;35756;52.346;13.622;2022-10-14T12:34:38;8.68;;;5.43;;
49858;SDS011;35756;52.346;13.622;2022-10-14T12:39:49;11.73;;;5.80;;
49858;SDS011;35756;52.346;13.622;2022-10-14T12:42:16;8.57;;;4.93;;
49858;SDS011;35756;52.346;13.622;2022-10-14T12:44:48;12.30;;;5.28;;
49858;SDS011;35756;52.346;13.622;2022-10-14T12:49:47;10.13;;;5.63;;
49858;SDS011;35756;52.346;13.622;2022-10-14T12:52:17;7.05;;;4.90;;
49858;SDS011;35756;52.346;13.622;2022-10-14T12:54:44;11.50;;;5.20;;
49858;SDS011;35756;52.346;13.622;2022-10-14T12:57:20;10.07;;;5.38;;
49858;SDS011;35756;52.346;13.622;2022-10-14T12:59:51;8.43;;;4.85;;
49858;SDS011;35756;52.346;13.622;2022-10-14T13:02:23;9.93;;;5.72;;
49858;SDS011;35756;52.346;13.622;2022-10-14T13:04:56;8.77;;;5.05;;
49858;SDS011;35756;52.346;13.622;2022-10-14T13:09:54;8.05;;;4.78;;
49858;SDS011;35756;52.346;13.622;2022-10-14T13:15:03;9.43;;;4.78;;
49858;SDS011;35756;52.346;13.622;2022-10-14T13:17:48;7.95;;;4.80;;
49858;SDS011;35756;52.346;13.622;2022-10-14T13:23:14;7.32;;;4.35;;
49858;SDS011;35756;52.346;13.622;2022-10-14T13:25:45;8.95;;;5.00;;
49858;SDS011;35756;52.346;13.622;2022-10-14T13:28:22;6.28;;;4.38;;
49858;SDS011;35756;52.346;13.622;2022-10-14T13:31:03;8.32;;;4.95;;
49858;SDS011;35756;52.346;13.622;2022-10-14T13:33:37;7.13;;;4.13;;
49858;SDS011;35756;52.346;13.622;2022-10-14T13:38:35;8.75;;;4.15;;
49858;SDS011;35756;52.346;13.622;2022-10-14T13:41:02;7.05;;;4.15;;
49858;SDS011;35756;52.346;13.622;2022-10-14T13:43:28;9.15;;;4.00;;
49858;SDS011;35756;52.346;13.622;2022-10-14T13:46:03;6.35;;;3.92;;
49858;SDS011;35756;52.346;13.622;2022-10-14T13:48:34;6.00;;;3.50;;
49858;SDS011;35756;52.346;13.622;2022-10-14T13:53:48;5.47;;;3.38;;
49858;SDS011;35756;52.346;13.622;2022-10-14T13:56:18;10.40;;;3.83;;
49858;SDS011;35756;52.346;13.622;2022-10-14T13:58:46;4.53;;;3.00;;
49858;SDS011;35756;52.346;13.622;2022-10-14T14:01:12;5.28;;;3.20;;
49858;SDS011;35756;52.346;13.622;2022-10-14T14:03:39;5.88;;;3.63;;
49858;SDS011;35756;52.346;13.622;2022-10-14T14:06:12;5.68;;;3.47;;
49858;SDS011;35756;52.346;13.622;2022-10-14T14:08:45;5.75;;;3.65;;
49858;SDS011;35756;52.346;13.622;2022-10-14T14:11:16;5.25;;;3.53;;
49858;SDS011;35756;52.346;13.622;2022-10-14T14:13:45;8.52;;;3.25;;
49858;SDS011;35756;52.346;13.622;2022-10-14T14:16:19;5.90;;;3.42;;
49858;SDS011;35756;52.346;13.622;2022-10-14T14:18:47;5.18;;;3.25;;
49858;SDS011;35756;52.346;13.622;2022-10-14T14:21:13;5.85;;;3.30;;
49858;SDS011;35756;52.346;13.622;2022-10-14T14:23:52;9.77;;;4.10;;
49858;SDS011;35756;52.346;13.622;2022-10-14T14:26:26;6.65;;;3.30;;
49858;SDS011;35756;52.346;13.622;2022-10-14T14:28:57;6.85;;;2.85;;
49858;SDS011;35756;52.346;13.622;2022-10-14T14:31:23;5.07;;;3.40;;
49858;SDS011;35756;52.346;13.622;2022-10-14T14:33:50;6.43;;;3.40;;
49858;SDS011;35756;52.346;13.622;2022-10-14T14:36:15;6.35;;;3.20;;
49858;SDS011;35756;52.346;13.622;2022-10-14T14:38:51;4.88;;;3.40;;
49858;SDS011;35756;52.346;13.622;2022-10-14T14:41:22;6.53;;;3.17;;
49858;SDS011;35756;52.346;13.622;2022-10-14T14:43:50;6.88;;;3.55;;
49858;SDS011;35756;52.346;13.622;2022-10-14T14:49:12;5.70;;;3.53;;
49858;SDS011;35756;52.346;13.622;2022-10-14T14:51:40;6.57;;;3.60;;
49858;SDS011;35756;52.346;13.622;2022-10-14T14:54:06;4.43;;;3.25;;
49858;SDS011;35756;52.346;13.622;2022-10-14T14:56:38;4.97;;;3.30;;
49858;SDS011;35756;52.346;13.622;2022-10-14T14:59:17;6.32;;;3.50;;
49858;SDS011;35756;52.346;13.622;2022-10-14T15:01:46;7.15;;;3.92;;
49858;SDS011;35756;52.346;13.622;2022-10-14T15:04:15;6.85;;;3.65;;
49858;SDS011;35756;52.346;13.622;2022-10-14T15:06:55;6.18;;;3.67;;
49858;SDS011;35756;52.346;13.622;2022-10-14T15:09:29;6.50;;;4.00;;
49858;SDS011;35756;52.346;13.622;2022-10-14T15:11:59;8.25;;;5.25;;
49858;SDS011;35756;52.346;13.622;2022-10-14T15:22:30;7.07;;;4.63;;
49858;SDS011;35756;52.346;13.622;2022-10-14T15:24:57;7.07;;;4.50;;
49858;SDS011;35756;52.346;13.622;2022-10-14T15:27:46;10.57;;;5.25;;
49858;SDS011;35756;52.346;13.622;2022-10-14T15:30:17;8.52;;;4.68;;
49858;SDS011;35756;52.346;13.622;2022-10-14T15:32:51;11.60;;;5.70;;
49858;SDS011;35756;52.346;13.622;2022-10-14T15:35:18;10.65;;;5.40;;
49858;SDS011;35756;52.346;13.622;2022-10-14T15:37:45;11.50;;;4.85;;
49858;SDS011;35756;52.346;13.622;2022-10-14T15:40:13;7.95;;;4.95;;
49858;SDS011;35756;52.346;13.622;2022-10-14T15:42:43;11.40;;;5.78;;
49858;SDS011;35756;52.346;13.622;2022-10-14T15:45:08;7.53;;;4.80;;
49858;SDS011;35756;52.346;13.622;2022-10-14T15:47:34;10.13;;;5.68;;
49858;SDS011;35756;52.346;13.622;2022-10-14T15:50:02;8.02;;;4.93;;
49858;SDS011;35756;52.346;13.622;2022-10-14T15:52:30;7.93;;;4.80;;
49858;SDS011;35756;52.346;13.622;2022-10-14T15:54:56;9.85;;;4.70;;